Time;durP1;ratioP1;P1;durP2;ratioP2;P2;SDS_P1;SDS_P2;PMS_P1;PMS_P2;Temp;Humidity;BMP_temperature;BMP_pressure;BME280_temperature;BME280_humidity;BME280_pressure;Samples;Min_cycle;Max_cycle;Signal;HPM_P1;HPM_P2
2022/04/11 00:00:25;;;;;;;5.80;5.28;;;2.00;99.90;;;;;;4177261;28;20063;-73
2022/04/11 00:02:26;;;;;;;6.03;5.25;;;2.00;99.90;;;;;;4173279;28;20064;-73
2022/04/11 00:04:29;;;;;;;6.90;5.63;;;2.00;99.90;;;;;;4178793;28;20058;-73
2022/04/11 00:06:30;;;;;;;5.88;5.30;;;2.00;99.90;;;;;;4179501;28;20054;-73
2022/04/11 00:08:32;;;;;;;6.30;5.50;;;2.00;99.90;;;;;;4176749;28;20057;-73
2022/04/11 00:10:34;;;;;;;8.00;5.45;;;2.10;99.90;;;;;;4176872;28;20064;-73
2022/04/11 00:12:37;;;;;;;8.73;5.50;;;2.10;99.90;;;;;;4177668;28;20053;-73
2022/04/11 00:14:39;;;;;;;6.63;4.97;;;2.10;99.90;;;;;;4179408;28;20062;-73
2022/04/11 00:16:41;;;;;;;5.65;5.07;;;2.10;99.90;;;;;;4177840;28;20064;-73
2022/04/11 00:18:43;;;;;;;6.15;5.65;;;2.10;99.90;;;;;;4173768;28;20058;-73
2022/04/11 00:20:47;;;;;;;9.20;6.15;;;1.90;99.90;;;;;;4177028;28;20640;-73
2022/04/11 00:22:48;;;;;;;9.40;6.35;;;1.90;99.90;;;;;;4179048;28;20068;-73
2022/04/11 00:24:50;;;;;;;7.60;6.07;;;1.90;99.90;;;;;;4178382;28;20160;-73
2022/04/11 00:26:52;;;;;;;9.07;5.82;;;1.90;99.90;;;;;;4169909;28;20080;-73
2022/04/11 00:28:53;;;;;;;9.73;6.28;;;1.90;99.90;;;;;;4174864;28;20065;-73
2022/04/11 00:30:55;;;;;;;7.18;6.40;;;2.00;99.90;;;;;;4177951;28;20053;-73
2022/04/11 00:32:57;;;;;;;12.52;7.90;;;2.00;99.90;;;;;;4177017;28;20046;-73
2022/04/11 00:34:59;;;;;;;10.88;6.47;;;2.00;99.90;;;;;;4177297;28;20058;-73
2022/04/11 00:37:01;;;;;;;6.68;6.03;;;1.90;99.90;;;;;;4169144;28;20846;-73
2022/04/11 00:39:02;;;;;;;7.75;6.15;;;1.80;99.90;;;;;;4172807;28;20057;-73
2022/04/11 00:41:04;;;;;;;10.52;7.13;;;1.80;99.90;;;;;;4162652;28;20172;-73
2022/04/11 00:43:06;;;;;;;12.15;7.60;;;1.70;99.90;;;;;;4173439;28;20173;-73
2022/04/11 00:45:08;;;;;;;11.00;6.93;;;1.60;99.90;;;;;;4165929;28;20766;-73
2022/04/11 00:47:09;;;;;;;8.93;6.78;;;1.60;99.90;;;;;;4169418;28;21872;-73
2022/04/11 00:49:11;;;;;;;10.98;6.43;;;1.60;99.90;;;;;;4171106;28;20168;-73
2022/04/11 00:51:20;;;;;;;7.25;5.95;;;1.60;99.90;;;;;;4171614;28;21177;-73
2022/04/11 00:53:23;;;;;;;9.32;6.80;;;1.70;99.90;;;;;;4168966;28;20228;-73
2022/04/11 00:55:25;;;;;;;9.00;6.65;;;1.70;99.90;;;;;;4166716;28;20149;-73
2022/04/11 00:57:27;;;;;;;7.43;6.40;;;1.70;99.90;;;;;;4169090;28;20184;-73
2022/04/11 00:59:30;;;;;;;6.82;6.10;;;1.70;99.90;;;;;;4170521;28;20156;-73
2022/04/11 01:01:31;;;;;;;9.70;6.90;;;1.70;99.90;;;;;;4169561;28;20686;-73
2022/04/11 01:03:34;;;;;;;11.10;6.63;;;1.70;99.90;;;;;;4165675;28;20062;-73
2022/04/11 01:05:36;;;;;;;7.97;6.70;;;1.60;99.90;;;;;;4169799;28;20988;-73
2022/04/11 01:07:38;;;;;;;8.45;6.57;;;1.60;99.90;;;;;;4172204;28;20061;-73
2022/04/11 01:09:40;;;;;;;7.35;6.43;;;1.60;99.90;;;;;;4174468;28;20785;-73
2022/04/11 01:11:42;;;;;;;9.50;6.20;;;1.50;99.90;;;;;;4178329;28;20176;-73
2022/04/11 01:13:44;;;;;;;9.02;6.18;;;1.50;99.90;;;;;;4173084;28;20065;-74
2022/04/11 01:15:57;;;;;;;9.35;5.85;;;1.50;99.90;;;;;;4172113;28;20060;-73
2022/04/11 01:18:00;;;;;;;12.02;5.80;;;1.50;99.90;;;;;;4173817;28;20785;-73
2022/04/11 01:20:13;;;;;;;5.75;5.05;;;1.50;99.90;;;;;;4152549;28;20794;-73
2022/04/11 01:22:14;;;;;;;6.18;5.55;;;1.60;99.90;;;;;;4168194;28;20846;-74
2022/04/11 01:24:20;;;;;;;6.65;5.63;;;1.60;99.90;;;;;;4168212;28;20125;-73
2022/04/11 01:26:23;;;;;;;6.18;5.53;;;1.60;99.90;;;;;;4172304;28;20057;-73
2022/04/11 01:28:24;;;;;;;6.38;5.70;;;1.60;99.90;;;;;;4162319;28;20099;-73
2022/04/11 01:30:26;;;;;;;8.68;6.70;;;1.50;99.90;;;;;;4168666;28;20058;-73
2022/04/11 01:32:28;;;;;;;8.52;5.75;;;1.40;99.90;;;;;;4171162;28;20180;-73
2022/04/11 01:34:30;;;;;;;7.75;6.13;;;1.40;99.90;;;;;;4170194;28;20054;-72
2022/04/11 01:36:32;;;;;;;7.22;6.30;;;1.40;99.90;;;;;;4173583;28;20062;-73
2022/04/11 01:38:34;;;;;;;8.30;6.70;;;1.30;99.90;;;;;;4169758;28;20061;-73
2022/04/11 01:40:35;;;;;;;7.30;6.20;;;1.20;99.90;;;;;;4173961;28;20793;-73
2022/04/11 01:42:37;;;;;;;7.22;6.53;;;1.20;99.90;;;;;;4173122;28;20151;-73
2022/04/11 01:44:39;;;;;;;12.50;6.95;;;1.20;99.90;;;;;;4170422;28;20156;-74
2022/04/11 01:46:42;;;;;;;15.00;6.53;;;1.20;99.90;;;;;;4177200;28;20632;-73
2022/04/11 01:48:44;;;;;;;8.15;6.63;;;1.20;99.90;;;;;;4170571;28;20057;-73
2022/04/11 01:50:46;;;;;;;11.10;6.28;;;1.30;99.90;;;;;;4175124;28;20065;-73
2022/04/11 01:52:48;;;;;;;8.00;6.40;;;1.40;99.90;;;;;;4174089;28;20659;-73
2022/04/11 01:54:49;;;;;;;6.57;5.55;;;1.40;99.90;;;;;;4177766;28;20781;-73
2022/04/11 01:57:11;;;;;;;11.13;6.40;;;1.30;99.90;;;;;;4180943;28;20770;-73
2022/04/11 01:59:14;;;;;;;6.82;5.95;;;1.40;99.90;;;;;;4169768;28;20180;-73
2022/04/11 02:01:18;;;;;;;8.73;6.43;;;1.40;99.90;;;;;;4174032;28;20062;-73
2022/04/11 02:03:19;;;;;;;6.35;5.60;;;1.50;99.90;;;;;;4156036;28;20139;-73
2022/04/11 02:05:21;;;;;;;8.18;6.75;;;1.50;99.90;;;;;;4172791;28;20144;-73
2022/04/11 02:07:23;;;;;;;10.50;6.60;;;1.60;99.90;;;;;;4171301;28;20088;-73
2022/04/11 02:09:25;;;;;;;7.35;6.45;;;1.60;99.90;;;;;;4172311;28;20054;-73
2022/04/11 02:11:27;;;;;;;8.65;6.10;;;1.60;99.90;;;;;;4175827;28;20060;-73
2022/04/11 02:13:28;;;;;;;9.00;6.20;;;1.60;99.90;;;;;;4171288;28;20045;-73
2022/04/11 02:15:30;;;;;;;12.52;6.65;;;1.60;99.90;;;;;;4167315;28;20054;-73
2022/04/11 02:17:32;;;;;;;6.28;5.65;;;1.60;99.90;;;;;;4172968;28;20060;-73
2022/04/11 02:19:34;;;;;;;7.10;6.03;;;1.60;99.90;;;;;;4175619;28;20093;-73
2022/04/11 02:21:35;;;;;;;12.57;5.88;;;1.50;99.90;;;;;;4172331;28;20054;-72
2022/04/11 02:23:37;;;;;;;7.07;6.28;;;1.50;99.90;;;;;;4169143;28;20065;-73
2022/04/11 02:25:40;;;;;;;6.22;5.72;;;1.50;99.90;;;;;;4169694;28;20884;-73
2022/04/11 02:27:42;;;;;;;9.07;6.55;;;1.60;99.90;;;;;;4173364;28;20064;-73
2022/04/11 02:29:44;;;;;;;6.32;5.82;;;1.70;99.90;;;;;;4176321;28;20068;-73
2022/04/11 02:31:46;;;;;;;7.55;6.43;;;1.70;99.90;;;;;;4174969;28;20836;-73
2022/04/11 02:33:47;;;;;;;9.52;6.22;;;1.80;99.90;;;;;;4167012;28;20142;-73
2022/04/11 02:35:50;;;;;;;9.40;5.93;;;1.80;99.90;;;;;;4175127;28;20064;-75
2022/04/11 02:37:52;;;;;;;7.90;5.57;;;1.90;99.90;;;;;;4172984;28;20054;-73
2022/04/11 02:39:54;;;;;;;11.85;6.88;;;1.90;99.90;;;;;;4176915;28;20200;-72
2022/04/11 02:41:55;;;;;;;9.93;6.72;;;2.00;99.90;;;;;;4175438;28;20061;-73
2022/04/11 02:43:57;;;;;;;9.18;6.85;;;2.00;99.90;;;;;;4168531;28;20058;-73
2022/04/11 02:45:59;;;;;;;8.43;5.68;;;2.10;99.90;;;;;;4174011;28;20112;-73
2022/04/11 02:48:01;;;;;;;7.30;6.35;;;2.00;99.90;;;;;;4174230;28;20084;-73
2022/04/11 02:50:03;;;;;;;6.13;5.53;;;2.10;99.90;;;;;;4170300;28;20065;-73
2022/04/11 02:52:05;;;;;;;9.77;6.57;;;2.00;99.90;;;;;;4169333;28;20064;-73
2022/04/11 02:54:07;;;;;;;7.53;5.57;;;2.00;99.90;;;;;;4170154;28;20618;-73
2022/04/11 02:56:09;;;;;;;6.18;5.57;;;2.10;99.90;;;;;;4174023;28;20057;-73
2022/04/11 02:58:11;;;;;;;7.63;6.88;;;2.10;99.90;;;;;;4173242;28;20081;-74
2022/04/11 03:00:14;;;;;;;8.30;5.95;;;2.00;99.90;;;;;;4169052;28;21074;-73
2022/04/11 03:02:15;;;;;;;8.05;6.35;;;2.00;99.90;;;;;;4169001;28;20065;-73
2022/04/11 03:04:18;;;;;;;6.97;6.28;;;2.00;99.90;;;;;;4176386;28;20057;-73
2022/04/11 03:06:19;;;;;;;6.88;6.18;;;2.00;99.90;;;;;;4173822;28;20065;-73
2022/04/11 03:08:21;;;;;;;9.27;6.78;;;2.00;99.90;;;;;;4171926;28;20057;-73
2022/04/11 03:10:22;;;;;;;13.70;6.68;;;2.10;99.90;;;;;;4169310;28;20830;-73
2022/04/11 03:12:27;;;;;;;8.20;7.07;;;2.10;99.90;;;;;;4171286;28;20064;-73
2022/04/11 03:14:30;;;;;;;8.98;6.47;;;2.10;99.90;;;;;;4173983;28;20050;-73
2022/04/11 03:16:31;;;;;;;9.45;6.32;;;2.00;99.90;;;;;;4170382;28;20057;-74
2022/04/11 03:18:34;;;;;;;6.70;5.97;;;2.00;99.90;;;;;;4171500;28;20187;-74
2022/04/11 03:20:35;;;;;;;8.18;6.85;;;2.00;99.90;;;;;;4178528;28;20172;-74
2022/04/11 03:22:37;;;;;;;6.68;5.82;;;2.00;99.90;;;;;;4179120;28;20058;-74
2022/04/11 03:24:39;;;;;;;11.77;6.47;;;2.00;99.90;;;;;;4179455;28;20069;-74
2022/04/11 03:26:41;;;;;;;6.53;5.82;;;2.00;99.90;;;;;;4177819;28;20057;-74
2022/04/11 03:28:42;;;;;;;8.45;5.68;;;2.00;99.90;;;;;;4176177;28;20064;-74
2022/04/11 03:30:44;;;;;;;6.40;5.80;;;1.90;99.90;;;;;;4178241;28;20057;-74
2022/04/11 03:32:46;;;;;;;6.60;5.88;;;1.90;99.90;;;;;;4179759;28;20060;-74
2022/04/11 03:34:51;;;;;;;6.63;5.85;;;1.90;99.90;;;;;;4161254;28;20882;-74
2022/04/11 03:36:53;;;;;;;10.07;6.85;;;1.80;99.90;;;;;;4173217;28;20060;-74
2022/04/11 03:38:54;;;;;;;11.45;6.15;;;1.80;99.90;;;;;;4179340;28;20058;-74
2022/04/11 03:40:56;;;;;;;7.35;6.03;;;1.90;99.90;;;;;;4179580;28;20060;-74
2022/04/11 03:42:58;;;;;;;10.10;6.30;;;1.90;99.90;;;;;;4179837;28;20080;-74
2022/04/11 03:45:00;;;;;;;7.97;6.45;;;1.90;99.90;;;;;;4177824;28;20857;-74
2022/04/11 03:47:03;;;;;;;8.15;7.07;;;2.00;99.90;;;;;;4176645;28;20057;-74
2022/04/11 03:49:05;;;;;;;7.45;6.50;;;2.00;99.90;;;;;;4175942;28;20129;-74
2022/04/11 03:51:07;;;;;;;7.93;5.85;;;2.00;99.90;;;;;;4172365;28;20667;-74
2022/04/11 03:53:10;;;;;;;7.50;6.75;;;2.00;99.90;;;;;;4176253;28;20639;-74
2022/04/11 03:55:11;;;;;;;8.57;7.00;;;1.90;99.90;;;;;;4172188;28;20062;-74
2022/04/11 03:57:13;;;;;;;10.85;6.85;;;1.80;99.90;;;;;;4171855;28;20122;-74
2022/04/11 03:59:15;;;;;;;7.82;6.80;;;1.90;99.90;;;;;;4173133;28;20164;-74
2022/04/11 04:01:16;;;;;;;8.52;7.00;;;1.90;99.90;;;;;;4170150;28;20897;-74
2022/04/11 04:03:18;;;;;;;9.82;6.47;;;1.90;99.90;;;;;;4161581;28;20655;-74
2022/04/11 04:05:20;;;;;;;10.25;6.85;;;1.90;99.90;;;;;;4175445;28;20065;-74
2022/04/11 04:07:22;;;;;;;9.55;7.15;;;1.90;99.90;;;;;;4178921;28;20041;-74
2022/04/11 04:09:23;;;;;;;21.13;7.63;;;1.90;99.90;;;;;;4179789;28;20860;-73
2022/04/11 04:11:25;;;;;;;7.38;6.75;;;1.90;99.90;;;;;;4175771;28;20053;-73
2022/04/11 04:13:27;;;;;;;9.82;6.60;;;1.90;99.90;;;;;;4173332;28;20060;-73
2022/04/11 04:15:28;;;;;;;8.18;7.38;;;1.90;99.90;;;;;;4177836;28;20876;-73
2022/04/11 04:17:30;;;;;;;8.80;7.80;;;1.90;99.90;;;;;;4179201;28;21151;-73
2022/04/11 04:19:38;;;;;;;15.07;8.65;;;1.80;99.90;;;;;;4176161;28;20053;-73
2022/04/11 04:21:39;;;;;;;10.60;8.40;;;1.80;99.90;;;;;;4174141;28;20792;-73
2022/04/11 04:23:41;;;;;;;13.60;8.38;;;1.80;99.90;;;;;;4175444;28;20069;-73
2022/04/11 04:25:43;;;;;;;10.23;7.88;;;1.80;99.90;;;;;;4161887;28;20232;-73
2022/04/11 04:27:45;;;;;;;9.23;8.30;;;1.80;99.90;;;;;;4179343;28;20161;-73
2022/04/11 04:29:46;;;;;;;8.70;7.90;;;1.80;99.90;;;;;;4176563;28;21156;-74
2022/04/11 04:31:49;;;;;;;20.25;11.05;;;1.90;99.90;;;;;;4175844;28;20180;-73
2022/04/11 04:33:51;;;;;;;18.77;9.35;;;1.80;99.90;;;;;;4170716;28;20062;-73
2022/04/11 04:35:52;;;;;;;14.80;9.60;;;1.80;99.90;;;;;;4173602;28;20060;-73
2022/04/11 04:37:54;;;;;;;22.02;11.20;;;1.80;99.90;;;;;;4169798;28;20788;-73
2022/04/11 04:39:56;;;;;;;20.38;11.65;;;1.80;99.90;;;;;;4151105;28;20058;-73
2022/04/11 04:41:57;;;;;;;16.98;9.98;;;1.80;99.90;;;;;;4171587;28;20872;-74
2022/04/11 04:43:59;;;;;;;13.45;9.15;;;1.70;99.90;;;;;;4171774;28;20807;-73
2022/04/11 04:46:01;;;;;;;11.20;8.90;;;1.70;99.90;;;;;;4171569;28;20060;-73
2022/04/11 04:48:04;;;;;;;19.27;9.98;;;1.70;99.90;;;;;;4178612;28;20053;-74
2022/04/11 04:50:06;;;;;;;9.75;8.57;;;1.70;99.90;;;;;;4175588;28;20069;-73
2022/04/11 04:52:08;;;;;;;10.43;8.15;;;1.70;99.90;;;;;;4172726;28;20931;-74
2022/04/11 04:54:10;;;;;;;12.07;8.57;;;1.60;99.90;;;;;;4173573;28;20057;-74
2022/04/11 04:56:12;;;;;;;10.38;7.32;;;1.60;99.90;;;;;;4170111;28;20087;-73
2022/04/11 04:58:13;;;;;;;12.18;7.80;;;1.70;99.90;;;;;;4165636;28;21020;-74
2022/04/11 05:00:15;;;;;;;10.82;7.75;;;1.70;99.90;;;;;;4169740;28;20180;-74
2022/04/11 05:02:19;;;;;;;10.98;7.40;;;1.70;99.90;;;;;;4171673;28;20091;-74
2022/04/11 05:04:21;;;;;;;7.40;6.70;;;1.70;99.90;;;;;;4171119;28;20062;-73
2022/04/11 05:06:22;;;;;;;8.25;7.40;;;1.60;99.90;;;;;;4169489;28;20867;-74
2022/04/11 05:08:24;;;;;;;8.88;7.88;;;1.70;99.90;;;;;;4161361;28;20054;-74
2022/04/11 05:10:26;;;;;;;10.00;7.63;;;1.70;99.90;;;;;;4178641;28;20064;-74
2022/04/11 05:12:27;;;;;;;12.02;8.20;;;1.70;99.90;;;;;;4176328;28;20061;-75
2022/04/11 05:14:29;;;;;;;8.75;7.55;;;1.70;99.90;;;;;;4178084;28;20061;-74
2022/04/11 05:16:31;;;;;;;10.93;7.38;;;1.70;99.90;;;;;;4178651;28;20055;-74
2022/04/11 05:18:33;;;;;;;11.05;7.57;;;1.70;99.90;;;;;;4162168;28;20818;-74
2022/04/11 05:20:34;;;;;;;8.55;7.50;;;1.70;99.90;;;;;;4181346;28;20172;-74
2022/04/11 05:22:37;;;;;;;10.15;7.93;;;1.80;99.90;;;;;;4178089;28;20076;-74
2022/04/11 05:24:38;;;;;;;10.73;8.48;;;1.80;99.90;;;;;;4175148;28;20093;-74
2022/04/11 05:26:40;;;;;;;8.88;7.82;;;1.80;99.90;;;;;;4179539;28;20180;-73
2022/04/11 05:28:42;;;;;;;11.30;7.53;;;1.90;99.90;;;;;;4181684;28;20061;-74
2022/04/11 05:30:43;;;;;;;11.25;8.63;;;2.00;99.90;;;;;;4179524;28;20097;-74
2022/04/11 05:32:45;;;;;;;10.05;7.90;;;2.10;99.90;;;;;;4177741;28;20057;-75
2022/04/11 05:34:47;;;;;;;11.57;8.23;;;2.30;99.90;;;;;;4176997;28;20580;-73
2022/04/11 05:36:48;;;;;;;11.68;8.70;;;2.40;99.90;;;;;;4180997;28;20057;-73
2022/04/11 05:38:50;;;;;;;12.30;8.25;;;2.60;99.90;;;;;;4178030;28;20119;-74
2022/04/11 05:40:52;;;;;;;10.80;8.13;;;2.80;99.90;;;;;;4177792;28;20099;-74
2022/04/11 05:42:54;;;;;;;12.02;7.78;;;2.90;99.90;;;;;;4162980;28;20678;-75
2022/04/11 05:44:55;;;;;;;15.13;8.52;;;3.00;99.90;;;;;;4178543;28;20096;-75
2022/04/11 05:46:57;;;;;;;9.60;8.40;;;3.10;99.90;;;;;;4179357;28;20141;-75
2022/04/11 05:48:59;;;;;;;10.32;8.02;;;3.30;99.90;;;;;;4179898;28;20148;-75
2022/04/11 05:51:01;;;;;;;11.27;7.78;;;3.40;99.90;;;;;;4177244;28;20053;-75
2022/04/11 05:53:03;;;;;;;8.40;7.55;;;3.60;99.90;;;;;;4177129;28;20879;-75
2022/04/11 05:55:05;;;;;;;16.45;8.48;;;3.60;99.90;;;;;;4179762;28;20758;-76
2022/04/11 05:57:07;;;;;;;12.65;7.45;;;3.70;99.90;;;;;;4180560;28;20092;-75
2022/04/11 05:59:08;;;;;;;9.75;8.38;;;3.80;99.90;;;;;;4179695;28;20069;-75
2022/04/11 06:01:10;;;;;;;10.35;8.23;;;3.90;99.90;;;;;;4175880;28;20057;-75
2022/04/11 06:03:12;;;;;;;10.27;7.82;;;4.00;99.90;;;;;;4178192;28;20061;-75
2022/04/11 06:05:14;;;;;;;12.93;7.82;;;4.10;99.90;;;;;;4181266;28;20060;-75
2022/04/11 06:07:20;;;;;;;10.73;7.93;;;4.20;99.90;;;;;;4179360;28;20058;-75
2022/04/11 06:09:22;;;;;;;7.95;7.18;;;4.20;99.90;;;;;;4174165;28;20068;-75
2022/04/11 06:11:24;;;;;;;13.27;8.25;;;4.30;99.90;;;;;;4177018;28;20057;-75
2022/04/11 06:13:25;;;;;;;8.88;7.53;;;4.40;99.90;;;;;;4180238;28;20063;-75
2022/04/11 06:15:27;;;;;;;12.23;7.88;;;4.40;99.40;;;;;;4180515;28;20093;-75
2022/04/11 06:17:29;;;;;;;15.05;8.48;;;4.40;99.60;;;;;;4178147;28;20054;-75
2022/04/11 06:19:31;;;;;;;11.90;8.18;;;4.50;99.50;;;;;;4156350;28;20861;-75
2022/04/11 06:21:32;;;;;;;11.32;7.88;;;4.60;99.40;;;;;;4173417;28;20073;-75
2022/04/11 06:23:34;;;;;;;8.82;7.57;;;4.70;98.60;;;;;;4163932;28;20061;-76
2022/04/11 06:25:36;;;;;;;13.73;7.78;;;4.70;98.60;;;;;;4169906;28;20160;-76
2022/04/11 06:27:37;;;;;;;8.82;7.93;;;4.90;97.60;;;;;;4167162;28;21154;-75
2022/04/11 06:29:39;;;;;;;10.27;7.00;;;4.90;97.20;;;;;;4172061;28;20160;-75
2022/04/11 06:31:41;;;;;;;9.70;7.57;;;4.90;97.00;;;;;;4174023;28;20789;-75
2022/04/11 06:33:42;;;;;;;11.32;7.68;;;4.90;96.70;;;;;;4162522;28;20062;-75
2022/04/11 06:35:51;;;;;;;10.20;7.78;;;4.90;96.40;;;;;;4172979;28;20252;-74
2022/04/11 06:37:53;;;;;;;10.73;7.38;;;4.90;96.30;;;;;;4169803;28;20054;-74
2022/04/11 06:39:55;;;;;;;9.32;7.43;;;4.90;96.50;;;;;;4175693;28;20057;-77
2022/04/11 06:41:57;;;;;;;10.70;7.53;;;5.00;96.20;;;;;;4173618;28;20801;-75
2022/04/11 06:43:58;;;;;;;10.30;6.95;;;5.10;95.90;;;;;;4171869;28;20053;-76
2022/04/11 06:46:00;;;;;;;19.60;7.55;;;5.20;96.00;;;;;;4169962;28;20062;-75
2022/04/11 06:48:03;;;;;;;10.57;8.02;;;5.30;95.60;;;;;;4170399;28;20690;-74
2022/04/11 06:50:05;;;;;;;16.15;7.93;;;5.40;95.70;;;;;;4175419;28;20076;-75
2022/04/11 06:52:07;;;;;;;13.65;7.82;;;5.50;95.50;;;;;;4172161;28;20089;-75
2022/04/11 06:54:09;;;;;;;13.70;6.90;;;5.60;94.00;;;;;;4168277;28;20069;-76
2022/04/11 06:56:10;;;;;;;8.57;6.93;;;5.60;93.30;;;;;;4171290;28;20065;-75
2022/04/11 06:58:13;;;;;;;12.85;7.60;;;5.70;93.50;;;;;;4163901;28;20064;-75
2022/04/11 07:00:15;;;;;;;9.25;7.00;;;5.80;93.80;;;;;;4180082;28;20136;-74
2022/04/11 07:02:17;;;;;;;7.70;6.57;;;5.90;93.70;;;;;;4176364;28;20064;-75
2022/04/11 07:04:20;;;;;;;9.68;7.65;;;5.90;93.30;;;;;;4172557;28;20160;-74
2022/04/11 07:06:21;;;;;;;13.65;7.20;;;6.00;94.00;;;;;;4175183;28;20049;-74
2022/04/11 07:08:23;;;;;;;12.00;7.28;;;6.00;94.40;;;;;;4158204;28;20085;-74
2022/04/11 07:10:25;;;;;;;9.52;6.03;;;6.10;93.10;;;;;;4176213;28;20049;-75
2022/04/11 07:12:26;;;;;;;10.00;6.75;;;6.10;91.30;;;;;;4175811;28;20058;-75
2022/04/11 07:14:28;;;;;;;7.25;5.45;;;6.10;91.60;;;;;;4169650;28;20061;-74
2022/04/11 07:16:30;;;;;;;11.10;6.80;;;6.10;92.00;;;;;;4173878;28;20057;-75
2022/04/11 07:18:33;;;;;;;8.50;6.50;;;6.20;91.60;;;;;;4175244;28;20062;-75
2022/04/11 07:20:35;;;;;;;7.65;5.95;;;6.30;91.30;;;;;;4180131;28;20730;-74
2022/04/11 07:22:37;;;;;;;7.93;6.75;;;6.30;91.70;;;;;;4170258;28;20059;-75
2022/04/11 07:24:38;;;;;;;10.45;7.10;;;6.40;91.50;;;;;;4174190;28;20079;-75
2022/04/11 07:26:40;;;;;;;12.75;6.18;;;6.50;91.70;;;;;;4174263;28;20977;-74
2022/04/11 07:28:43;;;;;;;8.98;6.13;;;6.50;90.80;;;;;;4177752;28;20938;-75
2022/04/11 07:30:44;;;;;;;6.75;6.13;;;6.60;91.20;;;;;;4176364;28;20777;-75
2022/04/11 07:32:46;;;;;;;13.43;5.95;;;6.70;90.60;;;;;;4171037;28;20796;-75
2022/04/11 07:34:48;;;;;;;11.65;5.75;;;6.80;89.90;;;;;;4193490;23;20093;-75
2022/04/11 07:36:50;;;;;;;10.68;6.20;;;6.80;89.40;;;;;;4179230;28;20884;-75
2022/04/11 07:38:52;;;;;;;6.45;5.05;;;6.70;87.40;;;;;;4169208;28;20064;-75
2022/04/11 07:40:53;;;;;;;7.47;5.18;;;6.80;88.80;;;;;;4183873;28;20820;-75
2022/04/11 07:42:55;;;;;;;10.70;6.93;;;6.80;87.20;;;;;;4189989;28;20074;-75
2022/04/11 07:44:57;;;;;;;6.80;4.95;;;6.90;86.90;;;;;;4178650;28;20057;-75
2022/04/11 07:46:58;;;;;;;6.00;4.78;;;7.00;87.50;;;;;;4188112;28;20052;-76
2022/04/11 07:49:00;;;;;;;5.55;4.60;;;7.00;85.80;;;;;;4188715;28;20057;-75
2022/04/11 07:51:02;;;;;;;6.28;4.97;;;7.10;85.90;;;;;;4185539;28;20661;-76
2022/04/11 07:53:04;;;;;;;7.70;5.10;;;7.20;84.40;;;;;;4179927;28;20076;-75
2022/04/11 07:55:07;;;;;;;7.45;4.45;;;7.20;85.20;;;;;;4191358;28;20097;-76
2022/04/11 07:57:09;;;;;;;6.05;5.13;;;7.30;87.50;;;;;;4180049;28;20065;-76
2022/04/11 07:59:11;;;;;;;7.57;5.28;;;7.30;86.10;;;;;;4186872;28;20089;-76
2022/04/11 08:01:16;;;;;;;6.07;4.70;;;7.40;85.90;;;;;;4193124;28;20159;-75
2022/04/11 08:03:19;;;;;;;7.85;4.88;;;7.50;83.90;;;;;;4192987;28;20061;-75
2022/04/11 08:05:22;;;;;;;5.10;4.50;;;7.60;83.00;;;;;;4167477;28;20062;-76
2022/04/11 08:07:23;;;;;;;4.35;3.78;;;7.70;81.90;;;;;;4186041;28;20975;-75
2022/04/11 08:09:26;;;;;;;9.15;4.30;;;7.80;80.90;;;;;;4171698;28;20060;-75
2022/04/11 08:11:28;;;;;;;5.50;3.75;;;7.80;83.30;;;;;;4190678;28;20057;-76
2022/04/11 08:13:30;;;;;;;9.02;4.63;;;7.90;81.10;;;;;;4175871;28;20069;-76
2022/04/11 08:15:32;;;;;;;6.18;3.50;;;8.00;78.60;;;;;;4182444;28;20077;-76
2022/04/11 08:17:34;;;;;;;4.68;3.65;;;8.00;79.60;;;;;;4190655;28;20088;-75
2022/04/11 08:19:36;;;;;;;7.13;3.30;;;8.10;77.70;;;;;;4189184;28;20092;-76
2022/04/11 08:21:38;;;;;;;3.55;3.20;;;8.10;79.00;;;;;;4175868;28;20057;-76
2022/04/11 08:23:40;;;;;;;4.95;3.42;;;8.20;78.40;;;;;;4179541;28;20069;-77
2022/04/11 08:25:42;;;;;;;4.90;3.55;;;8.30;77.90;;;;;;4188984;28;20053;-76
2022/04/11 08:27:44;;;;;;;9.68;4.40;;;8.30;75.90;;;;;;4185950;28;20068;-76
2022/04/11 08:29:46;;;;;;;4.57;3.88;;;8.30;76.60;;;;;;4193659;28;20155;-76
2022/04/11 08:31:47;;;;;;;5.60;3.75;;;8.40;76.30;;;;;;4180685;28;20172;-76
2022/04/11 08:33:49;;;;;;;4.35;3.13;;;8.40;76.60;;;;;;4179547;28;20096;-76
2022/04/11 08:35:51;;;;;;;3.97;3.55;;;8.40;76.60;;;;;;4192324;28;20057;-75
2022/04/11 08:37:53;;;;;;;6.45;4.20;;;8.50;77.00;;;;;;4171445;28;20076;-77
2022/04/11 08:39:55;;;;;;;5.03;4.47;;;8.60;77.60;;;;;;4171401;28;20058;-75
2022/04/11 08:42:01;;;;;;;7.53;3.78;;;8.60;76.90;;;;;;4164819;28;20061;-76
2022/04/11 08:44:11;;;;;;;4.93;3.78;;;8.60;78.60;;;;;;4186696;28;20152;-76
2022/04/11 08:46:19;;;;;;;5.32;4.30;;;8.70;76.70;;;;;;4177914;28;20321;-77
2022/04/11 08:48:22;;;;;;;4.75;3.60;;;8.70;75.20;;;;;;4183252;28;20053;-76
2022/04/11 08:50:25;;;;;;;4.55;3.60;;;8.70;76.40;;;;;;4197686;28;20057;-76
2022/04/11 08:52:28;;;;;;;6.18;3.78;;;8.80;76.20;;;;;;4190744;28;20049;-75
2022/04/11 08:54:30;;;;;;;6.00;3.67;;;8.90;77.20;;;;;;4200066;28;20044;-76
2022/04/11 08:56:34;;;;;;;4.05;3.75;;;8.90;73.60;;;;;;4197413;28;20916;-77
2022/04/11 08:58:35;;;;;;;10.88;4.20;;;9.00;74.70;;;;;;4202700;28;20137;-77
2022/04/11 09:00:37;;;;;;;6.13;3.80;;;9.10;78.10;;;;;;4197950;28;20049;-79
2022/04/11 09:02:41;;;;;;;4.03;3.35;;;9.20;74.00;;;;;;4183321;28;20070;-78
2022/04/11 09:04:51;;;;;;;4.10;3.75;;;9.20;73.40;;;;;;4181311;28;20065;-77
2022/04/11 09:06:57;;;;;;;5.30;3.40;;;9.30;74.00;;;;;;4205454;28;20425;-77
2022/04/11 09:08:59;;;;;;;4.57;4.18;;;9.50;74.20;;;;;;4194086;28;20064;-77
2022/04/11 09:11:00;;;;;;;3.63;3.13;;;9.60;74.00;;;;;;4198063;28;20823;-78
2022/04/11 09:13:04;;;;;;;4.35;3.75;;;9.60;73.10;;;;;;4191853;28;20117;-78
2022/04/11 09:15:06;;;;;;;5.13;4.13;;;9.60;71.80;;;;;;4190177;28;20073;-78
2022/04/11 09:17:09;;;;;;;5.35;4.00;;;9.60;72.20;;;;;;4205319;28;20130;-78
2022/04/11 09:19:25;;;;;;;6.15;4.13;;;9.60;71.70;;;;;;4195197;28;20058;-77
2022/04/11 09:21:47;;;;;;;6.07;3.83;;;9.60;74.20;;;;;;4191976;28;20069;-78
2022/04/11 09:24:10;;;;;;;4.22;3.35;;;9.60;75.70;;;;;;4209091;28;20056;-78
2022/04/11 09:26:23;;;;;;;4.75;3.83;;;9.80;73.30;;;;;;4211340;28;20076;-81
2022/04/11 09:28:25;;;;;;;4.07;3.42;;;10.00;71.40;;;;;;4194897;28;20081;-77
2022/04/11 09:30:31;;;;;;;5.10;3.60;;;10.10;70.10;;;;;;4204181;28;20062;-77
2022/04/11 09:32:33;;;;;;;6.18;3.80;;;10.00;69.60;;;;;;4188282;28;20053;-79
2022/04/11 09:34:35;;;;;;;7.30;3.47;;;9.90;70.10;;;;;;4206731;28;20034;-77
2022/04/11 09:36:45;;;;;;;3.38;2.47;;;10.00;70.90;;;;;;4206226;28;20057;-78
2022/04/11 09:39:01;;;;;;;6.68;3.08;;;10.10;68.20;;;;;;4206329;28;20868;-79
2022/04/11 09:41:03;;;;;;;3.08;2.50;;;10.10;67.90;;;;;;4195958;28;20064;-78
2022/04/11 09:43:05;;;;;;;5.28;2.55;;;10.30;68.80;;;;;;4207804;28;20053;-80
2022/04/11 09:45:07;;;;;;;4.00;2.80;;;10.40;67.40;;;;;;4204706;28;20184;-80
2022/04/11 09:47:25;;;;;;;4.65;2.95;;;10.40;65.00;;;;;;4194820;28;20088;-77
2022/04/11 09:49:27;;;;;;;2.63;1.92;;;10.50;64.70;;;;;;4183866;28;20050;-76
2022/04/11 09:51:29;;;;;;;4.60;2.38;;;10.40;62.00;;;;;;4206006;28;20041;-75
2022/04/11 09:53:33;;;;;;;3.53;2.45;;;10.50;62.70;;;;;;4189461;28;20576;-77
2022/04/11 09:55:36;;;;;;;3.45;2.67;;;10.60;61.30;;;;;;4185663;28;20053;-77
2022/04/11 09:57:40;;;;;;;6.45;2.65;;;10.70;62.50;;;;;;4185194;28;20104;-80
2022/04/11 09:59:43;;;;;;;4.03;2.40;;;10.70;63.80;;;;;;4182771;28;20152;-77
2022/04/11 10:02:06;;;;;;;3.55;2.55;;;10.70;62.80;;;;;;4196093;28;20053;-77
2022/04/11 10:04:09;;;;;;;4.22;2.67;;;10.80;60.90;;;;;;4170287;28;20053;-75
2022/04/11 10:06:12;;;;;;;3.80;2.35;;;10.80;63.00;;;;;;4194010;28;20860;-76
2022/04/11 10:08:14;;;;;;;2.63;2.42;;;10.80;62.60;;;;;;4183547;28;20152;-76
2022/04/11 10:10:17;;;;;;;2.42;2.08;;;10.90;59.90;;;;;;4189245;28;20057;-76
2022/04/11 10:12:19;;;;;;;3.55;2.50;;;10.90;58.40;;;;;;4193496;28;20789;-77
2022/04/11 10:14:25;;;;;;;4.05;2.08;;;10.80;59.00;;;;;;4178809;28;20137;-77
2022/04/11 10:16:28;;;;;;;2.55;2.35;;;10.90;60.60;;;;;;4194353;28;20162;-76
2022/04/11 10:18:30;;;;;;;2.72;2.20;;;10.90;59.90;;;;;;4199351;28;20061;-76
2022/04/11 10:20:40;;;;;;;3.67;1.85;;;11.00;58.80;;;;;;4183120;28;20848;-77
2022/04/11 10:23:23;;;;;;;2.15;1.95;;;11.10;58.20;;;;;;4186113;28;20789;-77
2022/04/11 10:25:26;;;;;;;3.88;2.03;;;11.20;58.30;;;;;;4174827;28;20735;-79
2022/04/11 10:27:29;;;;;;;5.47;2.53;;;11.30;59.20;;;;;;4183486;28;20080;-76
2022/04/11 10:29:38;;;;;;;3.03;2.28;;;11.30;56.50;;;;;;4197425;28;20100;-77
2022/04/11 10:31:40;;;;;;;5.13;1.85;;;11.40;57.00;;;;;;4196940;28;20119;-76
2022/04/11 10:33:49;;;;;;;3.13;1.67;;;11.30;57.60;;;;;;4179820;28;20057;-75
2022/04/11 10:35:53;;;;;;;4.20;2.38;;;11.40;58.30;;;;;;4180667;28;20062;-77
2022/04/11 10:37:57;;;;;;;2.85;2.00;;;11.50;56.30;;;;;;4196571;28;20148;-76
2022/04/11 10:40:17;;;;;;;3.13;1.40;;;11.50;57.00;;;;;;4191465;28;20908;-78
2022/04/11 10:42:26;;;;;;;6.20;2.27;;;11.50;57.80;;;;;;4193366;28;20103;-77
2022/04/11 10:44:35;;;;;;;2.63;1.80;;;11.60;58.60;;;;;;4198436;28;20087;-79